Time;durP1;ratioP1;P1;durP2;ratioP2;P2;SDS_P1;SDS_P2;PMS_P1;PMS_P2;Temp;Humidity;BMP_temperature;BMP_pressure;BME280_temperature;BME280_humidity;BME280_pressure;Samples;Min_cycle;Max_cycle;Signal;HPM_P1;HPM_P2
2022/12/13 00:01:45;;;;;;;;;;;;;;;-0.08;54.25;100117.75;4787631;29;7389;-72
2022/12/13 00:04:12;;;;;;;;;;;;;;;-0.11;54.08;100117.44;4784105;29;6865;-72
2022/12/13 00:06:38;;;;;;;;;;;;;;;-0.12;54.27;100113.16;4798685;29;7693;-72
2022/12/13 00:09:05;;;;;;;;;;;;;;;-0.16;54.39;100114.53;4800639;29;6794;-73
2022/12/13 00:11:31;;;;;;;;;;;;;;;-0.19;54.44;100115.19;4786627;29;6797;-73
2022/12/13 00:13:56;;;;;;;;;;;;;;;-0.19;53.98;100119.31;4800497;29;6950;-73
2022/12/13 00:16:25;;;;;;;;;;;;;;;-0.22;54.15;100117.41;4799392;29;7826;-72
2022/12/13 00:18:55;;;;;;;;;;;;;;;-0.24;54.12;100123.97;4780727;29;6797;-73
2022/12/13 00:21:27;;;;;;;;;;;;;;;-0.25;54.19;100126.34;4790137;29;7982;-72
2022/12/13 00:23:54;;;;;;;;;;;;;;;-0.28;54.49;100134.53;4787783;29;6829;-73
2022/12/13 00:26:28;;;;;;;;;;;;;;;-0.30;54.10;100139.44;4787624;29;6979;-72
2022/12/13 00:28:54;;;;;;;;;;;;;;;-0.31;54.01;100141.81;4774447;29;6886;-72
2022/12/13 00:31:23;;;;;;;;;;;;;;;-0.34;54.55;100136.50;4796136;29;7339;-72
2022/12/13 00:33:49;;;;;;;;;;;;;;;-0.37;53.71;100126.19;4771137;29;7203;-72
2022/12/13 00:36:15;;;;;;;;;;;;;;;-0.40;53.93;100133.44;4774669;29;6777;-72
2022/12/13 00:38:41;;;;;;;;;;;;;;;-0.43;53.78;100132.44;4779294;29;6897;-73
2022/12/13 00:41:17;;;;;;;;;;;;;;;-0.45;54.13;100138.09;4787049;29;7317;-72
2022/12/13 00:43:43;;;;;;;;;;;;;;;-0.48;54.27;100126.13;4790654;29;7318;-72
2022/12/13 00:46:15;;;;;;;;;;;;;;;-0.48;54.41;100127.75;4781044;29;7000;-72
2022/12/13 00:48:42;;;;;;;;;;;;;;;-0.49;54.33;100119.28;4783356;29;8848;-72
2022/12/13 00:51:10;;;;;;;;;;;;;;;-0.47;54.71;100119.44;4799018;29;7227;-73
2022/12/13 00:53:37;;;;;;;;;;;;;;;-0.46;54.64;100112.03;4798219;29;7084;-72
2022/12/13 00:56:08;;;;;;;;;;;;;;;-0.43;55.19;100112.28;4781786;29;7182;-72
2022/12/13 00:58:34;;;;;;;;;;;;;;;-0.38;55.10;100109.31;4799849;29;7019;-72
2022/12/13 01:01:06;;;;;;;;;;;;;;;-0.35;55.02;100105.38;4772357;29;6773;-72
2022/12/13 01:03:32;;;;;;;;;;;;;;;-0.32;55.63;100105.69;4776001;29;7000;-72
2022/12/13 01:05:58;;;;;;;;;;;;;;;-0.28;55.31;100107.69;4777622;29;6956;-72
2022/12/13 01:08:25;;;;;;;;;;;;;;;-0.24;55.17;100106.34;4762567;29;7187;-72
2022/12/13 01:10:51;;;;;;;;;;;;;;;-0.21;55.53;100109.09;4781854;29;7164;-72
2022/12/13 01:13:16;;;;;;;;;;;;;;;-0.18;55.17;100099.31;4798926;29;6801;-72
2022/12/13 01:15:44;;;;;;;;;;;;;;;-0.16;55.30;100101.94;4794929;29;6780;-72
2022/12/13 01:18:12;;;;;;;;;;;;;;;-0.15;55.03;100106.22;4774527;29;6817;-72
2022/12/13 01:20:38;;;;;;;;;;;;;;;-0.13;54.91;100096.28;4773823;29;6821;-73
2022/12/13 01:23:05;;;;;;;;;;;;;;;-0.15;55.29;100088.59;4777809;29;6788;-72
2022/12/13 01:25:32;;;;;;;;;;;;;;;-0.16;55.29;100082.69;4797008;29;6805;-72
2022/12/13 01:28:01;;;;;;;;;;;;;;;-0.16;54.67;100090.25;4796706;29;7192;-72
2022/12/13 01:30:26;;;;;;;;;;;;;;;-0.17;54.75;100085.97;4772215;29;6801;-73
2022/12/13 01:32:52;;;;;;;;;;;;;;;-0.19;55.10;100086.56;4751366;29;6967;-72
2022/12/13 01:35:18;;;;;;;;;;;;;;;-0.21;55.38;100091.47;4779513;29;6777;-72
2022/12/13 01:37:44;;;;;;;;;;;;;;;-0.21;55.36;100098.16;4797517;29;7043;-72
2022/12/13 01:40:10;;;;;;;;;;;;;;;-0.23;54.96;100098.03;4780017;29;6773;-73
2022/12/13 01:42:39;;;;;;;;;;;;;;;-0.24;55.33;100096.25;4783788;29;6834;-72
2022/12/13 01:45:26;;;;;;;;;;;;;;;-0.25;55.21;100097.00;4778317;29;6926;-72
2022/12/13 01:48:05;;;;;;;;;;;;;;;-0.27;55.10;100098.53;4791277;29;7284;-72
2022/12/13 01:50:37;;;;;;;;;;;;;;;-0.28;55.35;100101.78;4779934;29;7749;-73
2022/12/13 01:53:10;;;;;;;;;;;;;;;-0.26;55.24;100106.94;4778712;29;6801;-72
2022/12/13 01:55:39;;;;;;;;;;;;;;;-0.26;55.41;100097.75;4780819;29;6830;-73
2022/12/13 01:58:05;;;;;;;;;;;;;;;-0.27;55.64;100106.06;4775560;29;6865;-72
2022/12/13 02:00:34;;;;;;;;;;;;;;;-0.27;55.62;100098.53;4777300;29;8121;-72
2022/12/13 02:03:02;;;;;;;;;;;;;;;-0.27;55.37;100098.53;4773749;29;8182;-72
2022/12/13 02:05:40;;;;;;;;;;;;;;;-0.29;55.35;100098.38;4760116;29;7153;-72
2022/12/13 02:08:10;;;;;;;;;;;;;;;-0.32;55.07;100100.63;4774047;29;6909;-72
2022/12/13 02:10:35;;;;;;;;;;;;;;;-0.33;54.87;100108.06;4789337;29;7064;-72
2022/12/13 02:13:01;;;;;;;;;;;;;;;-0.36;55.05;100097.72;4780471;29;7157;-72
2022/12/13 02:15:58;;;;;;;;;;;;;;;-0.38;54.69;100101.75;4778544;29;6793;-72
2022/12/13 02:18:41;;;;;;;;;;;;;;;-0.44;55.10;100095.41;4772286;29;7029;-72
2022/12/13 02:21:09;;;;;;;;;;;;;;;-0.47;55.03;100097.69;4766475;29;7340;-72
2022/12/13 02:23:53;;;;;;;;;;;;;;;-0.49;55.33;100106.72;4771923;29;8873;-72
2022/12/13 02:26:30;;;;;;;;;;;;;;;-0.53;55.02;100093.72;4791503;29;6816;-72
2022/12/13 02:29:33;;;;;;;;;;;;;;;-0.58;54.60;100098.34;4771399;29;6805;-72
2022/12/13 02:32:20;;;;;;;;;;;;;;;-0.65;54.56;100094.41;4792046;29;7017;-73
2022/12/13 02:35:13;;;;;;;;;;;;;;;-0.70;54.48;100095.66;4761849;29;7005;-72
2022/12/13 02:38:01;;;;;;;;;;;;;;;-0.76;55.05;100095.13;4785505;29;6817;-72
2022/12/13 02:40:41;;;;;;;;;;;;;;;-0.79;54.53;100100.75;4791213;29;8465;-72
2022/12/13 02:43:48;;;;;;;;;;;;;;;-0.84;54.49;100097.81;4793183;29;6809;-73
2022/12/13 02:46:21;;;;;;;;;;;;;;;-0.91;54.82;100100.56;4779121;29;7005;-72
2022/12/13 02:48:51;;;;;;;;;;;;;;;-0.94;55.10;100100.28;4787691;29;6813;-72
2022/12/13 02:51:20;;;;;;;;;;;;;;;-0.98;54.67;100099.13;4794786;29;7079;-72
2022/12/13 02:53:46;;;;;;;;;;;;;;;-1.00;55.02;100090.56;4768583;29;7005;-72
2022/12/13 02:56:12;;;;;;;;;;;;;;;-1.01;54.97;100092.97;4770941;29;7106;-72
2022/12/13 02:58:48;;;;;;;;;;;;;;;-1.04;54.74;100087.63;4779520;29;8454;-72
2022/12/13 03:01:22;;;;;;;;;;;;;;;-1.06;54.58;100085.00;4777584;29;6816;-72
2022/12/13 03:06:28;;;;;;;;;;;;;;;-1.11;54.90;100086.22;4785808;29;7028;-72
2022/12/13 03:07:38;;;;;;;;;;;;;;;-1.15;54.92;100081.66;4783502;29;6825;-72
2022/12/13 03:10:28;;;;;;;;;;;;;;;-1.18;54.88;100082.25;4785520;29;7278;-72
2022/12/13 03:15:59;;;;;;;;;;;;;;;-1.24;54.46;100084.22;4775829;29;6829;-72
2022/12/13 03:18:32;;;;;;;;;;;;;;;-1.27;54.64;100069.72;4772344;29;6817;-73
2022/12/13 03:21:08;;;;;;;;;;;;;;;-1.27;54.45;100074.75;4765028;29;8697;-72
2022/12/13 03:23:35;;;;;;;;;;;;;;;-1.29;54.50;100073.75;4786994;29;7315;-72
2022/12/13 03:26:09;;;;;;;;;;;;;;;-1.29;54.73;100076.25;4776089;29;7249;-72
2022/12/13 03:28:35;;;;;;;;;;;;;;;-1.28;54.91;100075.50;4788882;29;6975;-72
2022/12/13 03:31:01;;;;;;;;;;;;;;;-1.27;54.60;100074.75;4791035;29;7299;-72
2022/12/13 03:33:27;;;;;;;;;;;;;;;-1.23;55.05;100068.38;4801245;29;7343;-72
2022/12/13 03:35:53;;;;;;;;;;;;;;;-1.21;54.78;100073.56;4787045;29;7200;-73
2022/12/13 03:38:19;;;;;;;;;;;;;;;-1.17;55.60;100075.59;4786778;29;6781;-71
2022/12/13 03:40:45;;;;;;;;;;;;;;;-1.15;55.74;100074.13;4777660;29;7595;-71
2022/12/13 03:43:10;;;;;;;;;;;;;;;-1.11;55.88;100073.63;4783359;29;6932;-72
2022/12/13 03:45:36;;;;;;;;;;;;;;;-1.06;55.85;100071.53;4782088;29;8632;-71
2022/12/13 03:48:02;;;;;;;;;;;;;;;-1.03;55.38;100067.66;4779023;29;7253;-72
2022/12/13 03:50:28;;;;;;;;;;;;;;;-1.00;55.90;100055.34;4784279;29;6829;-71
2022/12/13 03:52:59;;;;;;;;;;;;;;;-0.96;56.07;100070.72;4797288;29;7201;-70
2022/12/13 03:55:25;;;;;;;;;;;;;;;-0.95;55.93;100069.97;4767568;29;10159;-72
2022/12/13 03:57:54;;;;;;;;;;;;;;;-0.92;55.84;100072.75;4778203;29;6802;-73
2022/12/13 04:00:20;;;;;;;;;;;;;;;-0.90;55.77;100071.25;4780004;29;7155;-75
2022/12/13 04:02:45;;;;;;;;;;;;;;;-0.88;55.94;100062.19;4773395;29;6782;-75
2022/12/13 04:05:11;;;;;;;;;;;;;;;-0.87;55.71;100066.47;4777158;29;6769;-74
2022/12/13 04:07:37;;;;;;;;;;;;;;;-0.86;55.47;100060.72;4790232;29;6918;-75
2022/12/13 04:10:04;;;;;;;;;;;;;;;-0.84;55.87;100062.59;4790854;29;6793;-73
2022/12/13 04:15:14;;;;;;;;;;;;;;;-0.84;55.38;100054.19;4776501;29;6976;-75
2022/12/13 04:17:40;;;;;;;;;;;;;;;-0.84;56.02;100055.03;4777436;29;6793;-75
2022/12/13 04:20:06;;;;;;;;;;;;;;;-0.82;55.59;100055.19;4780824;29;6988;-74
2022/12/13 04:22:32;;;;;;;;;;;;;;;-0.78;56.25;100056.34;4783300;29;6934;-73
2022/12/13 04:24:58;;;;;;;;;;;;;;;-0.76;55.79;100059.88;4796308;29;7016;-75
2022/12/13 04:27:23;;;;;;;;;;;;;;;-0.74;55.85;100054.22;4785295;29;7432;-73
2022/12/13 04:29:49;;;;;;;;;;;;;;;-0.72;56.25;100055.25;4802436;29;6785;-75
2022/12/13 04:32:14;;;;;;;;;;;;;;;-0.71;56.14;100054.50;4785071;29;7195;-73
2022/12/13 04:34:40;;;;;;;;;;;;;;;-0.70;55.86;100051.22;4806308;29;7116;-75
2022/12/13 04:37:06;;;;;;;;;;;;;;;-0.71;55.95;100039.38;4801773;29;7235;-74
2022/12/13 04:39:31;;;;;;;;;;;;;;;-0.72;55.25;100046.81;4796940;29;8484;-75
2022/12/13 04:42:00;;;;;;;;;;;;;;;-0.74;55.44;100038.22;4779964;29;7234;-73
2022/12/13 04:44:25;;;;;;;;;;;;;;;-0.75;55.74;100031.44;4800390;29;6781;-75
2022/12/13 04:46:51;;;;;;;;;;;;;;;-0.75;55.49;100029.81;4790307;29;6846;-74
2022/12/13 04:49:17;;;;;;;;;;;;;;;-0.75;56.08;100029.81;4795990;29;7912;-75
2022/12/13 04:51:43;;;;;;;;;;;;;;;-0.74;55.75;100031.59;4782490;29;7179;-73
2022/12/13 04:54:08;;;;;;;;;;;;;;;-0.73;56.05;100028.31;4799343;29;6781;-74
2022/12/13 04:56:34;;;;;;;;;;;;;;;-0.71;56.35;100020.91;4797755;29;7870;-75
2022/12/13 04:59:00;;;;;;;;;;;;;;;-0.72;55.72;100025.03;4795309;29;6825;-75
2022/12/13 05:01:26;;;;;;;;;;;;;;;-0.71;56.22;100024.28;4788543;29;6860;-73
2022/12/13 05:03:52;;;;;;;;;;;;;;;-0.69;56.09;100019.41;4773687;29;6837;-73
2022/12/13 05:06:17;;;;;;;;;;;;;;;-0.67;56.11;100014.50;4777570;29;6789;-74
2022/12/13 05:08:43;;;;;;;;;;;;;;;-0.64;56.74;100017.28;4782266;29;6857;-73
2022/12/13 05:11:11;;;;;;;;;;;;;;;-0.60;56.85;100017.69;4798036;29;6976;-73
2022/12/13 05:13:38;;;;;;;;;;;;;;;-0.53;56.61;100013.16;4779439;29;7182;-73
2022/12/13 05:16:08;;;;;;;;;;;;;;;-0.47;57.04;100007.03;4790625;29;7338;-73
2022/12/13 05:18:35;;;;;;;;;;;;;;;-0.39;56.90;100007.66;4790213;29;6785;-73
2022/12/13 05:21:03;;;;;;;;;;;;;;;-0.31;57.13;100005.78;4786459;29;6947;-74
2022/12/13 05:23:30;;;;;;;;;;;;;;;-0.25;57.58;100003.81;4786714;29;7032;-75
2022/12/13 05:25:56;;;;;;;;;;;;;;;-0.17;57.20;100010.38;4781373;29;6951;-75
2022/12/13 05:28:25;;;;;;;;;;;;;;;-0.07;57.40;100006.13;4779434;29;7597;-75
2022/12/13 05:30:51;;;;;;;;;;;;;;;0.01;57.71;100012.69;4776942;29;7733;-75
2022/12/13 05:33:17;;;;;;;;;;;;;;;0.08;57.28;100012.41;4775523;29;6877;-75
2022/12/13 05:35:43;;;;;;;;;;;;;;;0.16;57.43;100014.72;4795259;29;6781;-75
2022/12/13 05:38:08;;;;;;;;;;;;;;;0.23;57.56;100006.91;4782085;29;6956;-75
2022/12/13 05:40:34;;;;;;;;;;;;;;;0.29;57.49;100009.94;4796549;29;6797;-75
2022/12/13 05:43:00;;;;;;;;;;;;;;;0.36;57.72;100007.16;4779080;29;6950;-75
2022/12/13 05:45:26;;;;;;;;;;;;;;;0.43;57.72;100010.19;4781542;29;6936;-75
2022/12/13 05:47:52;;;;;;;;;;;;;;;0.48;57.66;100013.94;4766703;29;7124;-74
2022/12/13 05:50:18;;;;;;;;;;;;;;;0.55;57.34;100016.22;4781424;29;6919;-74
2022/12/13 05:52:44;;;;;;;;;;;;;;;0.61;57.71;100010.78;4780029;29;6769;-74
2022/12/13 05:55:10;;;;;;;;;;;;;;;0.66;57.27;100012.06;4774231;29;7819;-75
2022/12/13 05:57:37;;;;;;;;;;;;;;;0.69;57.32;100010.69;4782356;29;7056;-74
2022/12/13 06:00:06;;;;;;;;;;;;;;;0.72;57.22;100006.63;4787829;29;6856;-75
2022/12/13 06:02:37;;;;;;;;;;;;;;;0.72;57.14;100009.16;4785491;29;7017;-74
2022/12/13 06:05:04;;;;;;;;;;;;;;;0.71;57.07;100007.41;4801584;29;7950;-75
2022/12/13 06:07:30;;;;;;;;;;;;;;;0.69;57.35;100010.69;4788940;29;7041;-75
2022/12/13 06:09:55;;;;;;;;;;;;;;;0.69;57.26;100015.72;4788024;29;6785;-75
2022/12/13 06:12:22;;;;;;;;;;;;;;;0.71;57.21;100007.41;4792877;29;7263;-74
2022/12/13 06:14:48;;;;;;;;;;;;;;;0.71;57.14;100009.91;4797781;29;6785;-75
2022/12/13 06:17:14;;;;;;;;;;;;;;;0.74;57.09;100010.16;4788457;29;6785;-74
2022/12/13 06:19:39;;;;;;;;;;;;;;;0.76;57.20;100017.09;4786975;29;6777;-75
2022/12/13 06:22:05;;;;;;;;;;;;;;;0.79;57.35;100013.94;4783976;29;6770;-75
2022/12/13 06:24:31;;;;;;;;;;;;;;;0.83;57.65;100018.47;4781690;29;7207;-73
2022/12/13 06:26:57;;;;;;;;;;;;;;;0.88;57.57;100011.28;4794799;29;6919;-74
2022/12/13 06:29:23;;;;;;;;;;;;;;;0.93;57.45;100010.88;4784579;29;7587;-75
2022/12/13 06:31:56;;;;;;;;;;;;;;;0.99;57.84;100004.56;4786334;29;6971;-75
2022/12/13 06:34:22;;;;;;;;;;;;;;;1.04;57.56;100009.22;4781244;29;7044;-74
2022/12/13 06:36:48;;;;;;;;;;;;;;;1.08;57.78;100008.69;4785483;29;7035;-74
2022/12/13 06:39:14;;;;;;;;;;;;;;;1.15;57.51;100016.75;4786960;29;6914;-74
2022/12/13 06:41:40;;;;;;;;;;;;;;;1.18;57.16;100011.94;4780293;29;7395;-74
2022/12/13 06:44:06;;;;;;;;;;;;;;;1.19;57.27;100009.56;4789307;29;7832;-74
2022/12/13 06:46:32;;;;;;;;;;;;;;;1.17;57.61;100008.56;4785655;29;7305;-74
2022/12/13 06:48:58;;;;;;;;;;;;;;;1.18;57.23;100000.22;4796369;29;6785;-74
2022/12/13 06:51:24;;;;;;;;;;;;;;;1.19;57.77;99999.47;4787037;29;6769;-74
2022/12/13 06:53:49;;;;;;;;;;;;;;;1.21;57.38;99999.59;4771141;29;6956;-74
2022/12/13 06:56:15;;;;;;;;;;;;;;;1.22;57.20;100004.75;4786934;29;6825;-75
2022/12/13 06:58:41;;;;;;;;;;;;;;;1.23;57.45;100006.50;4769046;29;8505;-74
2022/12/13 07:01:17;;;;;;;;;;;;;;;1.27;57.47;100015.19;4785503;29;6797;-75
2022/12/13 07:03:42;;;;;;;;;;;;;;;1.30;57.28;100010.38;4789362;29;6820;-74
2022/12/13 07:06:20;;;;;;;;;;;;;;;1.32;57.80;100010.50;4789740;29;6777;-75
2022/12/13 07:08:56;;;;;;;;;;;;;;;1.34;57.38;100016.56;4781616;29;7249;-74
2022/12/13 07:11:34;;;;;;;;;;;;;;;1.33;56.91;100015.69;4785799;29;6806;-73
2022/12/13 07:14:00;;;;;;;;;;;;;;;1.34;57.05;100012.41;4779955;29;6804;-74
2022/12/13 07:16:27;;;;;;;;;;;;;;;1.35;57.43;100004.06;4762807;29;8106;-74
2022/12/13 07:18:58;;;;;;;;;;;;;;;1.37;57.12;100006.72;4783799;29;6797;-75
2022/12/13 07:21:25;;;;;;;;;;;;;;;1.36;57.02;100003.31;4804154;29;6797;-73
2022/12/13 07:23:51;;;;;;;;;;;;;;;1.35;56.91;100006.59;4766743;29;7162;-75
2022/12/13 07:26:18;;;;;;;;;;;;;;;1.35;57.05;100001.53;4790090;29;7065;-75
2022/12/13 07:28:45;;;;;;;;;;;;;;;1.33;57.07;100002.19;4784255;29;6797;-75
2022/12/13 07:31:12;;;;;;;;;;;;;;;1.32;57.16;99997.88;4800741;29;6805;-74
2022/12/13 07:33:39;;;;;;;;;;;;;;;1.32;57.03;100001.31;4785088;29;6797;-75
2022/12/13 07:36:06;;;;;;;;;;;;;;;1.30;57.06;100002.81;4785110;29;6785;-76
2022/12/13 07:38:33;;;;;;;;;;;;;;;1.30;57.01;100002.81;4801766;29;6801;-75
2022/12/13 07:40:59;;;;;;;;;;;;;;;1.27;56.69;100004.25;4783301;29;6797;-75
2022/12/13 07:43:24;;;;;;;;;;;;;;;1.24;56.82;100003.22;4785149;29;7226;-75
2022/12/13 07:45:51;;;;;;;;;;;;;;;1.22;56.66;100003.88;4779308;29;11596;-74
2022/12/13 07:48:18;;;;;;;;;;;;;;;1.20;56.77;100008.78;4782852;29;6809;-74
2022/12/13 07:50:44;;;;;;;;;;;;;;;1.17;56.58;100001.00;4787647;29;6798;-74
2022/12/13 07:53:10;;;;;;;;;;;;;;;1.16;56.52;100008.44;4798481;29;6785;-75
2022/12/13 07:55:37;;;;;;;;;;;;;;;1.11;56.64;100003.00;4778894;29;7179;-75
2022/12/13 07:58:13;;;;;;;;;;;;;;;1.07;56.40;100009.47;4771953;29;8537;-74
2022/12/13 08:00:42;;;;;;;;;;;;;;;1.03;56.25;100015.03;4781065;29;7027;-75
2022/12/13 08:03:08;;;;;;;;;;;;;;;1.00;56.29;100018.94;4779125;29;8019;-74
2022/12/13 08:05:36;;;;;;;;;;;;;;;0.97;56.41;100019.59;4792259;29;7034;-74
2022/12/13 08:08:05;;;;;;;;;;;;;;;0.93;56.29;100018.44;4778554;29;6977;-74
2022/12/13 08:10:31;;;;;;;;;;;;;;;0.89;56.14;100015.56;4789632;29;6835;-75
2022/12/13 08:13:01;;;;;;;;;;;;;;;0.85;56.49;100016.94;4801263;29;6864;-75
2022/12/13 08:15:28;;;;;;;;;;;;;;;0.81;56.34;100027.56;4784907;29;8529;-75
2022/12/13 08:17:59;;;;;;;;;;;;;;;0.78;56.19;100032.38;4780829;29;6805;-75
2022/12/13 08:20:25;;;;;;;;;;;;;;;0.75;56.37;100025.44;4784748;29;7183;-75
2022/12/13 08:22:55;;;;;;;;;;;;;;;0.74;56.44;100026.19;4783760;29;6797;-75
2022/12/13 08:25:21;;;;;;;;;;;;;;;0.74;56.21;100028.72;4779635;29;7495;-75
2022/12/13 08:27:47;;;;;;;;;;;;;;;0.76;56.40;100023.78;4785350;29;7183;-75
2022/12/13 08:30:13;;;;;;;;;;;;;;;0.78;56.15;100024.81;4798185;29;6777;-75
2022/12/13 08:32:38;;;;;;;;;;;;;;;0.78;56.02;100019.75;4796375;29;6847;-74
2022/12/13 08:35:05;;;;;;;;;;;;;;;0.78;56.24;100017.22;4793218;29;7170;-75
2022/12/13 08:37:30;;;;;;;;;;;;;;;0.80;56.45;100028.31;4786733;29;6798;-74
2022/12/13 08:39:56;;;;;;;;;;;;;;;0.82;56.05;100022.66;4796132;29;6769;-75
2022/12/13 08:42:23;;;;;;;;;;;;;;;0.85;56.16;100021.13;4780223;29;6789;-73
2022/12/13 08:44:51;;;;;;;;;;;;;;;0.87;56.54;100032.22;4776709;29;7146;-74
2022/12/13 08:47:19;;;;;;;;;;;;;;;0.87;56.42;100035.63;4786506;29;6980;-75
2022/12/13 08:49:46;;;;;;;;;;;;;;;0.87;56.24;100035.63;4784855;29;6876;-74
2022/12/13 08:52:11;;;;;;;;;;;;;;;0.89;56.09;100034.13;4792521;29;8105;-73
2022/12/13 08:54:37;;;;;;;;;;;;;;;0.92;56.33;100038.53;4799493;29;6769;-75
2022/12/13 08:57:03;;;;;;;;;;;;;;;0.92;56.24;100034.34;4799236;29;7036;-75
2022/12/13 08:59:28;;;;;;;;;;;;;;;0.95;56.37;100026.16;4795303;29;7161;-75
2022/12/13 09:01:54;;;;;;;;;;;;;;;0.96;56.80;100036.34;4770847;29;6777;-74
2022/12/13 09:04:20;;;;;;;;;;;;;;;0.99;56.31;100034.84;4778268;29;7126;-74
2022/12/13 09:06:45;;;;;;;;;;;;;;;0.99;56.63;100033.19;4802425;29;6833;-75
2022/12/13 09:09:11;;;;;;;;;;;;;;;0.99;56.42;100037.38;4799502;29;6877;-75
2022/12/13 09:11:39;;;;;;;;;;;;;;;1.00;56.45;100036.63;4762566;29;7158;-75
2022/12/13 09:14:06;;;;;;;;;;;;;;;1.00;56.34;100041.66;4782555;29;6927;-75
2022/12/13 09:16:35;;;;;;;;;;;;;;;1.03;56.56;100041.91;4796560;29;6847;-74
2022/12/13 09:19:02;;;;;;;;;;;;;;;1.06;56.16;100049.72;4782673;29;7105;-75
2022/12/13 09:21:28;;;;;;;;;;;;;;;1.08;56.04;100048.22;4784381;29;6789;-75
2022/12/13 09:23:54;;;;;;;;;;;;;;;1.13;56.41;100054.50;4786574;29;6789;-75
2022/12/13 09:26:20;;;;;;;;;;;;;;;1.16;56.21;100039.63;4803024;29;6885;-75
2022/12/13 09:28:45;;;;;;;;;;;;;;;1.22;56.35;100040.09;4783844;29;8461;-74
2022/12/13 09:31:18;;;;;;;;;;;;;;;1.30;56.32;100042.34;4784240;29;6885;-75
2022/12/13 09:33:45;;;;;;;;;;;;;;;1.36;56.36;100037.78;4784882;29;6986;-76
2022/12/13 09:36:18;;;;;;;;;;;;;;;1.42;56.29;100038.25;4787405;29;7168;-75
2022/12/13 09:38:44;;;;;;;;;;;;;;;1.49;56.66;100039.63;4804169;29;6801;-75
2022/12/13 09:41:32;;;;;;;;;;;;;;;1.56;56.75;100041.00;4782038;29;6790;-74
2022/12/13 09:44:06;;;;;;;;;;;;;;;1.67;56.16;100043.56;4763329;29;7032;-74
2022/12/13 09:46:44;;;;;;;;;;;;;;;1.78;56.00;100031.78;4784504;29;6892;-75
2022/12/13 09:49:40;;;;;;;;;;;;;;;1.87;56.28;100028.22;4786041;29;7081;-75
2022/12/13 09:52:14;;;;;;;;;;;;;;;1.95;56.01;100032.22;4786178;29;6821;-75
2022/12/13 09:54:41;;;;;;;;;;;;;;;1.99;55.37;100024.06;4786475;29;8852;-74
2022/12/13 09:57:20;;;;;;;;;;;;;;;2.02;55.34;100036.94;4764439;29;7179;-75
2022/12/13 09:59:46;;;;;;;;;;;;;;;2.03;55.75;100036.22;4770668;29;7266;-74
2022/12/13 10:02:22;;;;;;;;;;;;;;;2.05;55.91;100039.72;4783542;29;7076;-75
2022/12/13 10:04:47;;;;;;;;;;;;;;;2.09;55.59;100035.78;4785587;29;7879;-75
2022/12/13 10:07:22;;;;;;;;;;;;;;;2.16;55.88;100030.41;4783222;29;7037;-73
2022/12/13 10:09:58;;;;;;;;;;;;;;;2.25;56.25;100022.66;4788669;29;7134;-74
2022/12/13 10:12:24;;;;;;;;;;;;;;;2.38;56.33;100021.03;4772849;29;6992;-75
2022/12/13 10:14:59;;;;;;;;;;;;;;;2.50;56.68;100014.34;4780580;29;6792;-74
2022/12/13 10:17:35;;;;;;;;;;;;;;;2.65;55.92;100014.59;4785097;29;6805;-75
2022/12/13 10:20:02;;;;;;;;;;;;;;;2.73;56.64;100005.91;4795428;29;8032;-74
2022/12/13 10:22:28;;;;;;;;;;;;;;;2.82;56.67;100003.19;4781682;29;7160;-74
2022/12/13 10:25:07;;;;;;;;;;;;;;;2.88;55.41;100005.28;4788231;29;7049;-75
2022/12/13 10:27:40;;;;;;;;;;;;;;;2.98;55.45;99999.22;4789883;29;6813;-74
2022/12/13 10:30:19;;;;;;;;;;;;;;;3.10;56.01;99995.06;4781066;29;6837;-74
2022/12/13 10:32:57;;;;;;;;;;;;;;;3.29;55.31;99996.38;4785926;29;11353;-74
2022/12/13 10:35:35;;;;;;;;;;;;;;;3.42;55.07;99988.84;4801755;29;6773;-73
2022/12/13 10:38:06;;;;;;;;;;;;;;;3.55;54.64;99992.22;4780365;29;6813;-74
2022/12/13 10:40:39;;;;;;;;;;;;;;;3.68;54.67;99983.81;4796253;29;6789;-74
2022/12/13 10:43:21;;;;;;;;;;;;;;;3.79;54.32;99984.56;4775728;29;7319;-74
2022/12/13 10:45:58;;;;;;;;;;;;;;;3.91;55.41;99981.97;4772535;29;7009;-73
2022/12/13 10:48:59;;;;;;;;;;;;;;;4.08;54.73;99973.84;4782084;29;8556;-74
2022/12/13 10:51:25;;;;;;;;;;;;;;;4.36;54.07;99979.91;4800854;29;7163;-74
2022/12/13 10:53:59;;;;;;;;;;;;;;;4.66;53.28;99980.13;4789277;29;6785;-74
2022/12/13 10:56:44;;;;;;;;;;;;;;;4.95;52.77;99971.84;4787923;29;6797;-74
2022/12/13 10:59:34;;;;;;;;;;;;;;;5.29;52.57;99955.28;4785275;29;6929;-75
2022/12/13 11:02:20;;;;;;;;;;;;;;;5.40;52.15;99953.44;4766474;29;8039;-74
2022/12/13 11:04:46;;;;;;;;;;;;;;;5.42;51.96;99955.28;4779580;29;6813;-74
2022/12/13 11:07:31;;;;;;;;;;;;;;;5.45;51.45;99953.72;4762011;29;10871;-73
2022/12/13 11:10:16;;;;;;;;;;;;;;;5.32;51.33;99942.81;4780816;29;6881;-73
2022/12/13 11:12:41;;;;;;;;;;;;;;;5.25;51.13;99938.13;4779642;29;6805;-75
2022/12/13 11:15:21;;;;;;;;;;;;;;;5.31;51.44;99927.44;4781926;29;6781;-74
2022/12/13 11:18:03;;;;;;;;;;;;;;;5.50;50.83;99925.25;4783373;29;6817;-75
2022/12/13 11:20:37;;;;;;;;;;;;;;;5.88;50.50;99930.00;4784630;29;7907;-74
2022/12/13 11:23:28;;;;;;;;;;;;;;;6.09;50.22;99920.25;4783342;29;7131;-74
2022/12/13 11:26:04;;;;;;;;;;;;;;;6.29;49.83;99923.94;4782194;29;7002;-73
2022/12/13 11:28:48;;;;;;;;;;;;;;;6.52;49.22;99912.50;4771944;29;7289;-72
2022/12/13 11:31:43;;;;;;;;;;;;;;;6.81;49.42;99897.13;4767246;29;7035;-73
2022/12/13 11:34:39;;;;;;;;;;;;;;;6.97;48.11;99903.03;4793929;29;7339;-73
2022/12/13 11:37:21;;;;;;;;;;;;;;;7.06;47.53;99912.06;4800128;29;6801;-73
2022/12/13 11:40:03;;;;;;;;;;;;;;;7.04;47.65;99905.13;4803556;29;7206;-73
2022/12/13 11:43:10;;;;;;;;;;;;;;;6.91;47.24;99899.38;4799664;29;7272;-73
2022/12/13 11:45:53;;;;;;;;;;;;;;;6.94;47.75;99894.44;4787368;29;6817;-73
2022/12/13 11:48:35;;;;;;;;;;;;;;;7.20;47.54;99882.22;4784696;29;7228;-72
2022/12/13 11:51:07;;;;;;;;;;;;;;;7.48;47.47;99893.00;4786251;29;6943;-72
2022/12/13 11:54:01;;;;;;;;;;;;;;;7.72;46.08;99887.38;4780387;29;7319;-73
2022/12/13 11:56:40;;;;;;;;;;;;;;;7.94;46.11;99888.50;4785643;29;8258;-73
2022/12/13 11:59:38;;;;;;;;;;;;;;;8.16;45.58;99876.00;4778291;29;6801;-73
2022/12/13 12:02:04;;;;;;;;;;;;;;;8.18;45.02;99874.38;4782557;29;6801;-73
2022/12/13 12:04:51;;;;;;;;;;;;;;;7.82;45.81;99874.31;4800715;29;6857;-73
2022/12/13 12:07:31;;;;;;;;;;;;;;;7.29;45.33;99869.06;4776617;29;8665;-73
2022/12/13 12:10:41;;;;;;;;;;;;;;;6.73;46.13;99860.16;4783247;29;6817;-73
2022/12/13 12:13:22;;;;;;;;;;;;;;;6.25;46.96;99868.56;4791419;29;6873;-73
2022/12/13 12:16:32;;;;;;;;;;;;;;;5.86;47.36;99868.84;4783298;29;7230;-72
2022/12/13 12:18:59;;;;;;;;;;;;;;;5.53;47.73;99869.50;4785350;29;6885;-72
2022/12/13 12:21:37;;;;;;;;;;;;;;;5.31;48.53;99869.00;4793468;29;6793;-73
2022/12/13 12:24:47;;;;;;;;;;;;;;;5.10;47.96;99856.75;4772563;29;7524;-73
2022/12/13 12:27:48;;;;;;;;;;;;;;;4.84;48.18;99854.34;4788033;29;6921;-73
2022/12/13 12:30:20;;;;;;;;;;;;;;;4.69;48.57;99845.78;4803420;29;7016;-72
2022/12/13 12:32:50;;;;;;;;;;;;;;;4.57;49.02;99836.63;4791429;29;6797;-73
2022/12/13 12:36:33;;;;;;;;;;;;;;;4.46;49.44;99837.59;4786929;29;6865;-73
2022/12/13 12:39:23;;;;;;;;;;;;;;;4.30;49.65;99851.84;4749106;30;7237;-73
2022/12/13 12:42:17;;;;;;;;;;;;;;;4.20;49.86;99852.03;4795995;29;6829;-72
2022/12/13 12:44:52;;;;;;;;;;;;;;;4.14;48.97;99851.63;4780822;29;7161;-73
2022/12/13 12:47:39;;;;;;;;;;;;;;;4.09;49.68;99848.78;4794563;29;6832;-72
2022/12/13 12:50:39;;;;;;;;;;;;;;;4.05;49.84;99851.00;4801000;29;8869;-73
2022/12/13 12:53:37;;;;;;;;;;;;;;;4.03;49.79;99851.78;4789858;29;8540;-72
2022/12/13 12:56:33;;;;;;;;;;;;;;;4.01;50.26;99860.09;4803258;29;7011;-71
2022/12/13 12:59:11;;;;;;;;;;;;;;;4.01;50.47;99863.50;4800481;29;7033;-73
2022/12/13 13:01:55;;;;;;;;;;;;;;;4.01;49.41;99862.66;4776678;29;6982;-72
2022/12/13 13:04:31;;;;;;;;;;;;;;;4.00;49.71;99869.34;4779608;29;6869;-72
2022/12/13 13:07:19;;;;;;;;;;;;;;;3.96;49.88;99869.94;4782636;29;8192;-72
2022/12/13 13:09:46;;;;;;;;;;;;;;;3.94;50.28;99873.16;4798715;29;6805;-72
2022/12/13 13:12:13;;;;;;;;;;;;;;;3.94;50.15;99871.47;4782391;29;6890;-72
2022/12/13 13:14:41;;;;;;;;;;;;;;;3.97;50.34;99873.34;4796857;29;7164;-72
2022/12/13 13:17:15;;;;;;;;;;;;;;;4.01;49.65;99867.72;4784188;29;6813;-72
2022/12/13 13:19:47;;;;;;;;;;;;;;;4.06;49.53;99860.41;4800934;29;7228;-72
2022/12/13 13:22:35;;;;;;;;;;;;;;;4.09;50.01;99871.59;4800845;29;6809;-72
2022/12/13 13:25:07;;;;;;;;;;;;;;;4.11;50.28;99864.09;4782619;29;6825;-71
2022/12/13 13:27:42;;;;;;;;;;;;;;;4.13;49.64;99870.16;4802281;29;7004;-72